Time;durP1;ratioP1;P1;durP2;ratioP2;P2;SDS_P1;SDS_P2;PMS_P1;PMS_P2;Temp;Humidity;BMP_temperature;BMP_pressure;BME280_temperature;BME280_humidity;BME280_pressure;Samples;Min_cycle;Max_cycle;Signal;HPM_P1;HPM_P2
2023/04/14 00:00:08;;;;;;;31.60;15.80;;;;;;;-128.00;-1.00;-1.00;18870;295;7505148;-37
2023/04/14 00:02:34;;;;;;;24.70;12.70;;;;;;;-128.00;-1.00;-1.00;18486;295;7504945;-35
2023/04/14 00:05:00;;;;;;;22.00;12.10;;;;;;;-128.00;-1.00;-1.00;18455;298;7504642;-33
2023/04/14 00:07:26;;;;;;;28.70;16.40;;;;;;;-128.00;-1.00;-1.00;18899;288;7504873;-35
2023/04/14 00:09:52;;;;;;;27.50;16.90;;;;;;;-128.00;-1.00;-1.00;18876;295;7504254;-33
2023/04/14 00:12:18;;;;;;;31.30;16.80;;;;;;;-128.00;-1.00;-1.00;18864;288;7504675;-33
2023/04/14 00:14:44;;;;;;;25.50;16.20;;;;;;;-128.00;-1.00;-1.00;18890;348;7504722;-33
2023/04/14 00:17:11;;;;;;;26.90;15.90;;;;;;;-128.00;-1.00;-1.00;18870;296;7504742;-34
2023/04/14 00:19:48;;;;;;;26.50;15.90;;;;;;;-128.00;-1.00;-1.00;18463;295;7505961;-36
2023/04/14 00:22:14;;;;;;;30.60;15.10;;;;;;;-128.00;-1.00;-1.00;18493;335;7504721;-33
2023/04/14 00:24:42;;;;;;;19.00;13.50;;;;;;;-128.00;-1.00;-1.00;18471;295;7506119;-35
2023/04/14 00:27:09;;;;;;;25.80;14.90;;;;;;;-128.00;-1.00;-1.00;18468;320;7505774;-35
2023/04/14 00:29:35;;;;;;;18.70;10.20;;;;;;;-128.00;-1.00;-1.00;18486;296;7504655;-35
2023/04/14 00:32:00;;;;;;;22.60;12.70;;;;;;;-128.00;-1.00;-1.00;18487;295;7505330;-33
2023/04/14 00:34:26;;;;;;;33.40;14.10;;;;;;;-128.00;-1.00;-1.00;18473;335;7504791;-36
2023/04/14 00:36:52;;;;;;;27.40;14.20;;;;;;;-128.00;-1.00;-1.00;18868;331;7507115;-35
2023/04/14 00:39:18;;;;;;;31.70;16.10;;;;;;;-128.00;-1.00;-1.00;18882;295;7504455;-33
2023/04/14 00:41:45;;;;;;;27.10;15.50;;;;;;;-128.00;-1.00;-1.00;18893;296;7504302;-35
2023/04/14 00:44:11;;;;;;;33.10;14.80;;;;;;;-128.00;-1.00;-1.00;18875;348;7505499;-35
2023/04/14 00:46:39;;;;;;;32.60;15.50;;;;;;;-128.00;-1.00;-1.00;18926;296;7504794;-34
2023/04/14 00:49:05;;;;;;;28.10;15.10;;;;;;;-128.00;-1.00;-1.00;18467;296;7506003;-34
2023/04/14 00:51:31;;;;;;;21.00;13.10;;;;;;;-128.00;-1.00;-1.00;18470;307;7505818;-33
2023/04/14 00:53:56;;;;;;;27.80;14.60;;;;;;;-128.00;-1.00;-1.00;18467;296;7505785;-34
2023/04/14 00:56:25;;;;;;;29.90;17.00;;;;;;;-128.00;-1.00;-1.00;18898;288;7505362;-33
2023/04/14 00:58:50;;;;;;;22.30;13.10;;;;;;;-128.00;-1.00;-1.00;18475;347;7505905;-33
2023/04/14 01:01:17;;;;;;;29.30;14.60;;;;;;;-128.00;-1.00;-1.00;18487;297;7504274;-33
2023/04/14 01:03:43;;;;;;;27.70;14.60;;;;;;;-128.00;-1.00;-1.00;18488;288;7504677;-35
2023/04/14 01:06:08;;;;;;;32.10;14.50;;;;;;;-128.00;-1.00;-1.00;18500;288;7504987;-35
2023/04/14 01:08:35;;;;;;;33.20;15.90;;;;;;;-128.00;-1.00;-1.00;18881;288;7504766;-35
2023/04/14 01:11:08;;;;;;;28.10;14.10;;;;;;;-128.00;-1.00;-1.00;18480;295;7504927;-34
2023/04/14 01:13:43;;;;;;;22.50;14.50;;;;;;;-128.00;-1.00;-1.00;18499;288;7506060;-35
2023/04/14 01:16:16;;;;;;;24.10;14.00;;;;;;;-128.00;-1.00;-1.00;18537;308;7505991;-32
2023/04/14 01:19:05;;;;;;;24.60;12.00;;;;;;;-128.00;-1.00;-1.00;18466;347;7504434;-36
2023/04/14 01:21:34;;;;;;;20.10;12.00;;;;;;;-128.00;-1.00;-1.00;18476;284;7505192;-35
2023/04/14 01:24:15;;;;;;;37.50;11.80;;;;;;;-128.00;-1.00;-1.00;18474;288;7504665;-33
2023/04/14 01:26:42;;;;;;;23.00;9.00;;;;;;;-128.00;-1.00;-1.00;18455;288;7504872;-33
2023/04/14 01:29:31;;;;;;;25.40;11.20;;;;;;;-128.00;-1.00;-1.00;18455;288;7504566;-33
2023/04/14 01:32:05;;;;;;;24.40;13.70;;;;;;;-128.00;-1.00;-1.00;18448;288;7504564;-35
2023/04/14 01:34:35;;;;;;;22.00;11.80;;;;;;;-128.00;-1.00;-1.00;18494;296;7506033;-33
2023/04/14 01:37:06;;;;;;;25.40;13.10;;;;;;;-128.00;-1.00;-1.00;18482;296;7504422;-33
2023/04/14 01:39:34;;;;;;;25.80;12.70;;;;;;;-128.00;-1.00;-1.00;18481;288;7504185;-37
2023/04/14 01:42:01;;;;;;;27.90;14.00;;;;;;;-128.00;-1.00;-1.00;18496;295;7505727;-35
2023/04/14 01:44:26;;;;;;;28.60;11.30;;;;;;;-128.00;-1.00;-1.00;18469;296;7504765;-35
2023/04/14 01:46:55;;;;;;;39.90;14.60;;;;;;;-128.00;-1.00;-1.00;18494;296;7506220;-35
2023/04/14 01:49:21;;;;;;;42.50;14.70;;;;;;;-128.00;-1.00;-1.00;18510;295;7505788;-35
2023/04/14 01:51:47;;;;;;;40.20;16.40;;;;;;;-128.00;-1.00;-1.00;18500;296;7506128;-36
2023/04/14 01:54:12;;;;;;;25.00;14.40;;;;;;;-128.00;-1.00;-1.00;18469;296;7505777;-36
2023/04/14 01:56:38;;;;;;;32.70;14.80;;;;;;;-128.00;-1.00;-1.00;18889;297;7504886;-35
2023/04/14 01:59:05;;;;;;;42.70;19.80;;;;;;;-128.00;-1.00;-1.00;18883;296;7504363;-35
2023/04/14 02:01:31;;;;;;;41.30;19.20;;;;;;;-128.00;-1.00;-1.00;18893;296;7504286;-32
2023/04/14 02:03:57;;;;;;;32.70;15.40;;;;;;;-128.00;-1.00;-1.00;18864;295;7505254;-35
2023/04/14 02:06:23;;;;;;;39.10;16.90;;;;;;;-128.00;-1.00;-1.00;18894;296;7505072;-33
2023/04/14 02:08:50;;;;;;;31.90;15.70;;;;;;;-128.00;-1.00;-1.00;18868;307;7505100;-36
2023/04/14 02:11:16;;;;;;;24.60;14.70;;;;;;;-128.00;-1.00;-1.00;18499;296;7504008;-33
2023/04/14 02:13:42;;;;;;;39.40;13.90;;;;;;;-128.00;-1.00;-1.00;18470;297;7505748;-33
2023/04/14 02:16:09;;;;;;;29.40;15.70;;;;;;;-128.00;-1.00;-1.00;18483;331;7506270;-35
2023/04/14 02:18:36;;;;;;;51.60;18.00;;;;;;;-128.00;-1.00;-1.00;18481;296;7506248;-33
2023/04/14 02:21:02;;;;;;;52.10;15.10;;;;;;;-128.00;-1.00;-1.00;18472;296;7505234;-34
2023/04/14 02:23:28;;;;;;;39.70;17.70;;;;;;;-128.00;-1.00;-1.00;18462;296;7504890;-33
2023/04/14 02:26:01;;;;;;;47.50;15.70;;;;;;;-128.00;-1.00;-1.00;18451;296;7504790;-33
2023/04/14 02:28:29;;;;;;;26.70;13.20;;;;;;;-128.00;-1.00;-1.00;18460;338;7505079;-33
2023/04/14 02:30:55;;;;;;;23.00;11.40;;;;;;;-128.00;-1.00;-1.00;18487;288;7504134;-35
2023/04/14 02:33:21;;;;;;;28.90;13.60;;;;;;;-128.00;-1.00;-1.00;18487;296;7504504;-36
2023/04/14 02:36:02;;;;;;;22.30;10.80;;;;;;;-128.00;-1.00;-1.00;18506;296;7506215;-36
2023/04/14 02:38:36;;;;;;;73.70;18.90;;;;;;;-128.00;-1.00;-1.00;18501;295;7505092;-32
2023/04/14 02:41:18;;;;;;;27.50;14.20;;;;;;;-128.00;-1.00;-1.00;18483;307;7504640;-32
2023/04/14 02:43:57;;;;;;;31.70;12.00;;;;;;;-128.00;-1.00;-1.00;18505;296;7506503;-33
2023/04/14 02:46:23;;;;;;;37.80;14.80;;;;;;;-128.00;-1.00;-1.00;18465;348;7506262;-33
2023/04/14 02:48:49;;;;;;;28.40;13.80;;;;;;;-128.00;-1.00;-1.00;18467;298;7506843;-34
2023/04/14 02:51:15;;;;;;;30.90;13.50;;;;;;;-128.00;-1.00;-1.00;18470;297;7505957;-35
2023/04/14 02:53:41;;;;;;;28.70;11.80;;;;;;;-128.00;-1.00;-1.00;18467;296;7506202;-35
2023/04/14 02:56:07;;;;;;;38.10;14.60;;;;;;;-128.00;-1.00;-1.00;18887;296;7505342;-35
2023/04/14 02:58:33;;;;;;;45.20;16.60;;;;;;;-128.00;-1.00;-1.00;18917;295;7504963;-34
2023/04/14 03:00:59;;;;;;;40.30;14.70;;;;;;;-128.00;-1.00;-1.00;18891;296;7505499;-33
2023/04/14 03:03:27;;;;;;;47.50;13.30;;;;;;;-128.00;-1.00;-1.00;18462;299;7506209;-35
2023/04/14 03:05:52;;;;;;;48.40;14.80;;;;;;;-128.00;-1.00;-1.00;18507;296;7506459;-34
2023/04/14 03:08:18;;;;;;;34.30;15.60;;;;;;;-128.00;-1.00;-1.00;18498;288;7506593;-33
2023/04/14 03:10:45;;;;;;;34.50;13.20;;;;;;;-128.00;-1.00;-1.00;18916;295;7504429;-34
2023/04/14 03:13:11;;;;;;;39.50;13.80;;;;;;;-128.00;-1.00;-1.00;18475;296;7505315;-35
2023/04/14 03:15:36;;;;;;;32.40;15.00;;;;;;;-128.00;-1.00;-1.00;18471;295;7505235;-33
2023/04/14 03:18:02;;;;;;;32.50;13.60;;;;;;;-128.00;-1.00;-1.00;18500;296;7505090;-32
2023/04/14 03:20:28;;;;;;;22.50;13.30;;;;;;;-128.00;-1.00;-1.00;18490;296;7505954;-33
2023/04/14 03:22:59;;;;;;;19.80;10.40;;;;;;;-128.00;-1.00;-1.00;18478;319;7505919;-32
2023/04/14 03:25:28;;;;;;;5.90;2.90;;;;;;;-128.00;-1.00;-1.00;18539;296;7505880;-35
2023/04/14 03:27:55;;;;;;;28.40;13.30;;;;;;;-128.00;-1.00;-1.00;18505;331;7505169;-35
2023/04/14 03:30:21;;;;;;;18.50;10.30;;;;;;;-128.00;-1.00;-1.00;18495;296;7504687;-32
2023/04/14 03:32:47;;;;;;;71.10;14.00;;;;;;;-128.00;-1.00;-1.00;18450;342;7505976;-36
2023/04/14 03:35:14;;;;;;;44.00;19.60;;;;;;;-128.00;-1.00;-1.00;18888;296;7505409;-33
2023/04/14 03:37:40;;;;;;;46.00;14.50;;;;;;;-128.00;-1.00;-1.00;18497;288;7505634;-35
2023/04/14 03:40:07;;;;;;;29.70;14.00;;;;;;;-128.00;-1.00;-1.00;18489;295;7506513;-34
2023/04/14 03:42:34;;;;;;;27.20;14.00;;;;;;;-128.00;-1.00;-1.00;18459;347;7504372;-36
2023/04/14 03:45:01;;;;;;;42.60;13.10;;;;;;;-128.00;-1.00;-1.00;18507;295;7504837;-36
2023/04/14 03:47:29;;;;;;;32.30;12.60;;;;;;;-128.00;-1.00;-1.00;18480;288;7504916;-35
2023/04/14 03:49:58;;;;;;;38.20;12.80;;;;;;;-128.00;-1.00;-1.00;18467;331;7507169;-34
2023/04/14 03:52:24;;;;;;;58.00;13.40;;;;;;;-128.00;-1.00;-1.00;18491;288;7505700;-36
2023/04/14 03:54:52;;;;;;;145.40;13.60;;;;;;;-128.00;-1.00;-1.00;18469;295;7505343;-35
2023/04/14 03:57:17;;;;;;;100.20;16.70;;;;;;;-128.00;-1.00;-1.00;18475;347;7504857;-34
2023/04/14 03:59:43;;;;;;;25.90;11.90;;;;;;;-128.00;-1.00;-1.00;18512;295;7504308;-36
2023/04/14 04:02:09;;;;;;;33.70;11.80;;;;;;;-128.00;-1.00;-1.00;18463;347;7506033;-33
2023/04/14 04:04:36;;;;;;;47.90;10.30;;;;;;;-128.00;-1.00;-1.00;18502;296;7504967;-33
2023/04/14 04:07:01;;;;;;;32.70;11.60;;;;;;;-128.00;-1.00;-1.00;18483;296;7504527;-35
2023/04/14 04:09:28;;;;;;;27.30;13.20;;;;;;;-128.00;-1.00;-1.00;18473;296;7505175;-33
2023/04/14 04:11:57;;;;;;;64.20;17.80;;;;;;;-128.00;-1.00;-1.00;18489;296;7504686;-35
2023/04/14 04:14:22;;;;;;;59.10;15.60;;;;;;;-128.00;-1.00;-1.00;18520;347;7504125;-33
2023/04/14 04:16:48;;;;;;;92.90;17.50;;;;;;;-128.00;-1.00;-1.00;18486;296;7504711;-35
2023/04/14 04:19:14;;;;;;;61.00;13.50;;;;;;;-128.00;-1.00;-1.00;18485;347;7505415;-32
2023/04/14 04:21:40;;;;;;;33.00;16.40;;;;;;;-128.00;-1.00;-1.00;18437;343;7504702;-35
2023/04/14 04:24:06;;;;;;;29.60;14.30;;;;;;;-128.00;-1.00;-1.00;18471;296;7504819;-35
2023/04/14 04:26:34;;;;;;;41.20;17.90;;;;;;;-128.00;-1.00;-1.00;18470;298;7505238;-33
2023/04/14 04:28:59;;;;;;;34.20;15.60;;;;;;;-128.00;-1.00;-1.00;18471;297;7505541;-35
2023/04/14 04:31:28;;;;;;;51.40;19.00;;;;;;;-128.00;-1.00;-1.00;18863;297;7504554;-33
2023/04/14 04:33:56;;;;;;;28.90;14.00;;;;;;;-128.00;-1.00;-1.00;18507;296;7504541;-35
2023/04/14 05:14:54;;;;;;;59.30;22.00;;;;;;;-101.13;19.20;19668.02;19582;296;8046155;-35
2023/04/14 05:17:20;;;;;;;65.00;21.90;;;;;;;-128.00;-1.00;-1.00;18077;305;7504971;-33
2023/04/14 05:19:46;;;;;;;43.10;18.10;;;;;;;-128.00;-1.00;-1.00;18478;300;7504703;-33
2023/04/14 05:22:12;;;;;;;46.00;19.20;;;;;;;-128.00;-1.00;-1.00;18456;295;7505083;-33
2023/04/14 05:24:38;;;;;;;30.80;15.20;;;;;;;-128.00;-1.00;-1.00;18511;295;7504830;-33
2023/04/14 05:27:04;;;;;;;36.10;18.10;;;;;;;-128.00;-1.00;-1.00;18478;295;7504859;-36
2023/04/14 05:29:30;;;;;;;29.10;14.20;;;;;;;-128.00;-1.00;-1.00;18480;323;7506277;-33
2023/04/14 05:31:55;;;;;;;33.00;17.10;;;;;;;-128.00;-1.00;-1.00;18461;296;7506029;-33
2023/04/14 05:34:21;;;;;;;33.40;15.70;;;;;;;-128.00;-1.00;-1.00;18886;319;7504913;-35
2023/04/14 05:36:48;;;;;;;44.70;18.40;;;;;;;-128.00;-1.00;-1.00;18850;295;7504886;-35
2023/04/14 05:39:14;;;;;;;43.80;19.50;;;;;;;-128.00;-1.00;-1.00;18863;288;7504940;-34
2023/04/14 05:41:40;;;;;;;33.70;17.20;;;;;;;-128.00;-1.00;-1.00;18453;298;7504314;-33
2023/04/14 05:44:06;;;;;;;33.90;17.80;;;;;;;-128.00;-1.00;-1.00;18482;319;7504737;-35
2023/04/14 05:46:32;;;;;;;46.00;21.00;;;;;;;-128.00;-1.00;-1.00;18868;342;7504740;-34
2023/04/14 05:48:59;;;;;;;47.70;20.20;;;;;;;-128.00;-1.00;-1.00;18864;295;7504557;-35
2023/04/14 05:51:26;;;;;;;48.30;21.50;;;;;;;-128.00;-1.00;-1.00;18470;288;7505783;-33
2023/04/14 05:53:52;;;;;;;40.90;19.20;;;;;;;-128.00;-1.00;-1.00;18494;284;7504830;-33
2023/04/14 05:56:18;;;;;;;44.20;17.20;;;;;;;-128.00;-1.00;-1.00;18457;331;7504995;-36
2023/04/14 05:58:44;;;;;;;55.10;22.00;;;;;;;-128.00;-1.00;-1.00;18862;295;7506121;-35
2023/04/14 06:01:10;;;;;;;49.50;20.30;;;;;;;-128.00;-1.00;-1.00;18863;297;7504823;-34
2023/04/14 06:03:36;;;;;;;40.90;21.00;;;;;;;-128.00;-1.00;-1.00;18889;295;7505095;-33
2023/04/14 06:06:03;;;;;;;45.70;22.70;;;;;;;-128.00;-1.00;-1.00;18892;308;7504733;-35
2023/04/14 06:08:29;;;;;;;41.50;20.80;;;;;;;-128.00;-1.00;-1.00;18446;295;7504237;-33
2023/04/14 06:10:55;;;;;;;41.40;19.10;;;;;;;-128.00;-1.00;-1.00;18481;295;7504659;-36
2023/04/14 06:13:21;;;;;;;41.70;20.70;;;;;;;-128.00;-1.00;-1.00;18465;308;7504886;-36
2023/04/14 06:15:49;;;;;;;55.40;24.00;;;;;;;-128.00;-1.00;-1.00;18472;320;7505733;-35
2023/04/14 06:18:16;;;;;;;37.30;20.70;;;;;;;-128.00;-1.00;-1.00;18495;348;7506079;-33
2023/04/14 06:20:42;;;;;;;56.40;25.80;;;;;;;-128.00;-1.00;-1.00;18476;296;7505214;-35
2023/04/14 06:23:07;;;;;;;55.10;24.90;;;;;;;-128.00;-1.00;-1.00;18436;296;7504685;-34
2023/04/14 06:25:34;;;;;;;55.00;27.10;;;;;;;-128.00;-1.00;-1.00;18858;296;7504868;-35
2023/04/14 06:28:02;;;;;;;55.80;27.40;;;;;;;-128.00;-1.00;-1.00;18860;288;7504170;-37
2023/04/14 06:30:31;;;;;;;58.10;29.60;;;;;;;-128.00;-1.00;-1.00;18511;288;7504726;-34
2023/04/14 06:32:57;;;;;;;52.40;27.30;;;;;;;-128.00;-1.00;-1.00;18494;284;7504503;-34
2023/04/14 06:35:23;;;;;;;46.80;23.60;;;;;;;-128.00;-1.00;-1.00;18450;288;7504336;-36
2023/04/14 06:37:49;;;;;;;53.10;25.00;;;;;;;-128.00;-1.00;-1.00;18479;284;7504845;-36
2023/04/14 06:40:15;;;;;;;49.50;25.40;;;;;;;-128.00;-1.00;-1.00;18474;288;7504825;-33
2023/04/14 06:42:41;;;;;;;62.90;31.10;;;;;;;-128.00;-1.00;-1.00;18906;288;7504258;-36
2023/04/14 06:45:07;;;;;;;59.00;27.10;;;;;;;-128.00;-1.00;-1.00;18853;295;7504402;-34
2023/04/14 06:47:33;;;;;;;47.10;25.80;;;;;;;-128.00;-1.00;-1.00;18450;348;7506240;-33
2023/04/14 06:49:59;;;;;;;62.50;29.60;;;;;;;-128.00;-1.00;-1.00;18876;296;7505090;-33
2023/04/14 06:52:26;;;;;;;54.30;27.20;;;;;;;-128.00;-1.00;-1.00;18861;288;7504691;-33
2023/04/14 06:54:52;;;;;;;58.50;27.30;;;;;;;-128.00;-1.00;-1.00;18897;307;7504489;-37
2023/04/14 06:57:18;;;;;;;47.60;24.40;;;;;;;-128.00;-1.00;-1.00;18859;296;7504336;-36
2023/04/14 06:59:45;;;;;;;50.90;26.70;;;;;;;-128.00;-1.00;-1.00;18878;320;7505567;-35
2023/04/14 07:02:11;;;;;;;43.60;23.30;;;;;;;-128.00;-1.00;-1.00;18489;307;7506023;-36
2023/04/14 07:04:37;;;;;;;53.90;29.70;;;;;;;-128.00;-1.00;-1.00;18850;338;7504666;-34
2023/04/14 07:07:03;;;;;;;65.80;29.00;;;;;;;-128.00;-1.00;-1.00;18857;297;7504609;-35
2023/04/14 07:09:29;;;;;;;47.10;26.60;;;;;;;-128.00;-1.00;-1.00;18896;296;7506199;-36
2023/04/14 07:11:56;;;;;;;41.60;24.50;;;;;;;-128.00;-1.00;-1.00;18860;297;7504682;-36
2023/04/14 07:14:23;;;;;;;43.00;25.30;;;;;;;-128.00;-1.00;-1.00;18439;298;7506165;-36
2023/04/14 07:16:50;;;;;;;57.70;27.30;;;;;;;-128.00;-1.00;-1.00;18485;297;7506006;-34
2023/04/14 07:19:18;;;;;;;55.80;25.20;;;;;;;-128.00;-1.00;-1.00;18464;288;7505178;-34
2023/04/14 07:21:45;;;;;;;57.30;32.80;;;;;;;-128.00;-1.00;-1.00;18489;304;7505322;-34
2023/04/14 07:24:11;;;;;;;58.80;31.30;;;;;;;-128.00;-1.00;-1.00;18478;319;7507202;-37
2023/04/14 07:26:37;;;;;;;59.40;30.70;;;;;;;-128.00;-1.00;-1.00;18474;296;7504345;-37
2023/04/14 07:29:02;;;;;;;70.80;36.10;;;;;;;-128.00;-1.00;-1.00;18456;298;7506000;-34
2023/04/14 07:31:32;;;;;;;72.90;35.60;;;;;;;-128.00;-1.00;-1.00;18471;337;7506672;-33
2023/04/14 07:33:58;;;;;;;62.90;30.40;;;;;;;-128.00;-1.00;-1.00;18484;320;7504672;-35
2023/04/14 07:36:24;;;;;;;43.50;24.70;;;;;;;-128.00;-1.00;-1.00;18480;312;7505851;-32
2023/04/14 07:38:50;;;;;;;60.50;34.50;;;;;;;-128.00;-1.00;-1.00;18859;297;7504195;-36
2023/04/14 07:41:16;;;;;;;62.80;31.90;;;;;;;-128.00;-1.00;-1.00;18459;297;7504739;-32
2023/04/14 07:43:42;;;;;;;52.70;29.80;;;;;;;-128.00;-1.00;-1.00;18490;296;7504236;-34
2023/04/14 07:46:08;;;;;;;39.70;25.20;;;;;;;-128.00;-1.00;-1.00;18471;288;7505807;-32
2023/04/14 07:48:35;;;;;;;68.10;29.90;;;;;;;-128.00;-1.00;-1.00;18469;296;7506784;-32
2023/04/14 07:51:01;;;;;;;46.80;29.00;;;;;;;-128.00;-1.00;-1.00;18457;300;7504962;-32
2023/04/14 07:53:27;;;;;;;53.30;34.30;;;;;;;-128.00;-1.00;-1.00;18474;295;7504582;-35
2023/04/14 07:55:53;;;;;;;59.30;34.50;;;;;;;-128.00;-1.00;-1.00;18877;295;7504561;-33
2023/04/14 07:58:20;;;;;;;55.20;32.90;;;;;;;-128.00;-1.00;-1.00;18839;311;7504215;-32
2023/04/14 08:00:45;;;;;;;44.60;29.10;;;;;;;-128.00;-1.00;-1.00;18482;348;7504507;-35
2023/04/14 08:03:12;;;;;;;56.70;32.00;;;;;;;-128.00;-1.00;-1.00;18459;297;7505387;-32
2023/04/14 08:05:38;;;;;;;59.30;33.80;;;;;;;-128.00;-1.00;-1.00;18480;347;7504737;-32
2023/04/14 08:08:04;;;;;;;59.80;29.50;;;;;;;-128.00;-1.00;-1.00;18485;288;7504907;-32
2023/04/14 08:10:29;;;;;;;55.30;31.70;;;;;;;-128.00;-1.00;-1.00;18479;308;7504352;-33
2023/04/14 08:12:55;;;;;;;52.00;30.80;;;;;;;-128.00;-1.00;-1.00;18458;295;7504745;-32
2023/04/14 08:15:21;;;;;;;63.70;33.00;;;;;;;-128.00;-1.00;-1.00;18472;297;7504898;-36
2023/04/14 08:17:46;;;;;;;52.60;28.80;;;;;;;-128.00;-1.00;-1.00;18489;295;7504218;-32
2023/04/14 08:20:12;;;;;;;65.80;32.30;;;;;;;-128.00;-1.00;-1.00;18492;296;7504339;-32
2023/04/14 08:22:38;;;;;;;69.00;27.40;;;;;;;-128.00;-1.00;-1.00;18478;288;7504924;-35
2023/04/14 08:25:04;;;;;;;42.20;24.70;;;;;;;-128.00;-1.00;-1.00;18467;295;7505753;-36
2023/04/14 08:27:30;;;;;;;54.90;27.70;;;;;;;-128.00;-1.00;-1.00;18456;297;7505218;-36
2023/04/14 08:29:56;;;;;;;39.60;23.20;;;;;;;-128.00;-1.00;-1.00;18482;296;7506186;-32
2023/04/14 08:32:22;;;;;;;51.20;28.80;;;;;;;-128.00;-1.00;-1.00;18883;290;7504514;-35
2023/04/14 08:34:48;;;;;;;50.10;28.80;;;;;;;-128.00;-1.00;-1.00;18866;296;7504254;-36
2023/04/14 08:37:15;;;;;;;55.60;29.40;;;;;;;-128.00;-1.00;-1.00;18879;288;7505520;-34
2023/04/14 08:39:41;;;;;;;44.10;25.20;;;;;;;-128.00;-1.00;-1.00;18482;348;7506016;-31
2023/04/14 08:42:07;;;;;;;55.10;30.70;;;;;;;-128.00;-1.00;-1.00;18864;310;7505405;-33
2023/04/14 08:44:33;;;;;;;46.70;27.20;;;;;;;-128.00;-1.00;-1.00;18891;312;7505255;-33
2023/04/14 08:46:59;;;;;;;41.60;23.40;;;;;;;-128.00;-1.00;-1.00;18863;288;7504703;-34
2023/04/14 08:49:33;;;;;;;50.80;27.20;;;;;;;-128.00;-1.00;-1.00;18869;316;7504549;-32
2023/04/14 08:51:59;;;;;;;51.30;24.50;;;;;;;-128.00;-1.00;-1.00;18499;288;7506740;-35
2023/04/14 08:54:24;;;;;;;41.80;22.40;;;;;;;-128.00;-1.00;-1.00;18485;288;7504601;-32
2023/04/14 08:56:51;;;;;;;44.20;24.40;;;;;;;-128.00;-1.00;-1.00;18870;348;7505088;-31
2023/04/14 08:59:17;;;;;;;47.00;24.80;;;;;;;-128.00;-1.00;-1.00;18868;348;7504989;-32
2023/04/14 09:01:43;;;;;;;61.10;31.40;;;;;;;-128.00;-1.00;-1.00;18462;296;7505814;-36
2023/04/14 09:04:09;;;;;;;53.10;24.20;;;;;;;-128.00;-1.00;-1.00;18476;288;7506179;-32
2023/04/14 09:06:35;;;;;;;44.80;26.00;;;;;;;-128.00;-1.00;-1.00;18900;296;7505127;-35
2023/04/14 09:09:09;;;;;;;44.30;22.90;;;;;;;-128.00;-1.00;-1.00;18854;297;7505327;-32
2023/04/14 09:11:35;;;;;;;44.20;25.60;;;;;;;-128.00;-1.00;-1.00;18461;288;7504642;-32
2023/04/14 09:14:01;;;;;;;22.30;14.60;;;;;;;-128.00;-1.00;-1.00;18478;296;7504654;-36
2023/04/14 09:16:27;;;;;;;40.90;22.00;;;;;;;-128.00;-1.00;-1.00;18471;296;7505808;-36
2023/04/14 09:18:53;;;;;;;39.10;23.80;;;;;;;-128.00;-1.00;-1.00;18478;303;7506348;-36
2023/04/14 09:21:20;;;;;;;69.60;26.50;;;;;;;-128.00;-1.00;-1.00;18484;296;7506018;-33
2023/04/14 09:23:46;;;;;;;33.00;19.40;;;;;;;-128.00;-1.00;-1.00;18487;320;7506214;-32
2023/04/14 09:26:12;;;;;;;29.40;18.10;;;;;;;-128.00;-1.00;-1.00;18485;296;7504471;-32
2023/04/14 09:28:38;;;;;;;41.50;23.40;;;;;;;-128.00;-1.00;-1.00;18446;303;7506160;-32
2023/04/14 09:31:04;;;;;;;41.50;24.80;;;;;;;-128.00;-1.00;-1.00;18462;296;7506097;-32
2023/04/14 09:33:30;;;;;;;44.20;21.80;;;;;;;-128.00;-1.00;-1.00;18461;348;7505344;-33
2023/04/14 09:35:56;;;;;;;33.70;22.50;;;;;;;-128.00;-1.00;-1.00;18441;299;7506454;-36
2023/04/14 09:38:34;;;;;;;33.00;20.50;;;;;;;-128.00;-1.00;-1.00;18493;296;7504730;-33
2023/04/14 09:41:00;;;;;;;40.70;23.60;;;;;;;-128.00;-1.00;-1.00;18491;288;7505855;-36
2023/04/14 09:43:26;;;;;;;36.30;20.30;;;;;;;-128.00;-1.00;-1.00;18445;298;7504377;-35
2023/04/14 09:45:52;;;;;;;30.80;19.10;;;;;;;-128.00;-1.00;-1.00;18479;348;7506525;-32
2023/04/14 09:48:19;;;;;;;37.10;21.30;;;;;;;-128.00;-1.00;-1.00;18481;296;7505092;-32
2023/04/14 09:51:08;;;;;;;43.20;21.60;;;;;;;-128.00;-1.00;-1.00;18476;296;7504561;-35
2023/04/14 09:53:35;;;;;;;27.10;17.50;;;;;;;-128.00;-1.00;-1.00;18473;296;7504982;-32
2023/04/14 09:56:03;;;;;;;36.40;20.70;;;;;;;-128.00;-1.00;-1.00;18469;296;7506279;-36
2023/04/14 09:58:34;;;;;;;36.90;26.90;;;;;;;-128.00;-1.00;-1.00;18491;296;7504359;-33
2023/04/14 10:01:04;;;;;;;60.00;28.60;;;;;;;-128.00;-1.00;-1.00;18480;288;7504321;-36
2023/04/14 10:03:33;;;;;;;32.20;16.90;;;;;;;-128.00;-1.00;-1.00;18480;337;7504382;-36
2023/04/14 10:06:00;;;;;;;38.80;23.90;;;;;;;-128.00;-1.00;-1.00;18458;296;7504600;-36
2023/04/14 10:08:42;;;;;;;34.40;20.90;;;;;;;-128.00;-1.00;-1.00;18464;288;7506976;-36
2023/04/14 10:11:21;;;;;;;17.40;12.80;;;;;;;-128.00;-1.00;-1.00;18482;288;7504684;-31
2023/04/14 10:13:50;;;;;;;19.70;14.60;;;;;;;-128.00;-1.00;-1.00;18450;296;7505974;-36
2023/04/14 10:16:16;;;;;;;23.90;13.80;;;;;;;-128.00;-1.00;-1.00;18463;288;7504955;-36
2023/04/14 10:18:42;;;;;;;14.10;10.20;;;;;;;-128.00;-1.00;-1.00;18460;296;7504738;-32
2023/04/14 10:21:08;;;;;;;15.50;10.40;;;;;;;-128.00;-1.00;-1.00;18463;296;7505359;-32
2023/04/14 10:23:36;;;;;;;18.00;10.80;;;;;;;-128.00;-1.00;-1.00;18473;296;7506274;-35
2023/04/14 10:26:02;;;;;;;21.20;10.70;;;;;;;-128.00;-1.00;-1.00;18465;296;7504266;-38
2023/04/14 10:28:28;;;;;;;16.80;12.70;;;;;;;-128.00;-1.00;-1.00;18467;296;7506307;-33
2023/04/14 10:30:53;;;;;;;18.00;13.00;;;;;;;-128.00;-1.00;-1.00;18472;296;7506254;-37
2023/04/14 10:33:19;;;;;;;16.70;11.90;;;;;;;-128.00;-1.00;-1.00;18484;332;7504288;-33
2023/04/14 10:35:47;;;;;;;11.50;10.10;;;;;;;-128.00;-1.00;-1.00;18463;296;7504639;-33
2023/04/14 10:38:13;;;;;;;14.30;11.70;;;;;;;-128.00;-1.00;-1.00;18438;296;7506280;-32
2023/04/14 10:40:47;;;;;;;15.90;10.90;;;;;;;-128.00;-1.00;-1.00;18456;337;7504511;-36
2023/04/14 10:43:13;;;;;;;12.60;9.70;;;;;;;-128.00;-1.00;-1.00;18450;288;7506375;-32
2023/04/14 10:45:57;;;;;;;47.00;28.50;;;;;;;-128.00;-1.00;-1.00;18459;295;7505966;-36
2023/04/14 10:48:27;;;;;;;40.90;24.10;;;;;;;-128.00;-1.00;-1.00;18474;296;7504896;-36
2023/04/14 10:51:00;;;;;;;17.10;11.60;;;;;;;-128.00;-1.00;-1.00;18519;296;7504697;-36
2023/04/14 10:53:26;;;;;;;31.80;17.10;;;;;;;-128.00;-1.00;-1.00;18485;296;7504669;-36
2023/04/14 10:55:54;;;;;;;11.10;9.90;;;;;;;-128.00;-1.00;-1.00;18478;288;7506072;-33
2023/04/14 10:58:21;;;;;;;22.60;14.20;;;;;;;-128.00;-1.00;-1.00;18469;295;7506368;-36
2023/04/14 11:00:46;;;;;;;14.40;10.90;;;;;;;-128.00;-1.00;-1.00;18478;308;7504391;-36
2023/04/14 11:03:15;;;;;;;12.30;10.10;;;;;;;-128.00;-1.00;-1.00;18482;337;7505847;-35
2023/04/14 11:46:37;;;;;;;3.60;2.90;;;;;;;-98.48;11.14;19610.23;98355;287;1545327;-35
2023/04/14 11:49:05;;;;;;;7.90;3.30;;;;;;;-128.00;-1.00;-1.00;97443;295;1003844;-36
2023/04/14 11:51:32;;;;;;;4.00;3.50;;;;;;;-128.00;-1.00;-1.00;97832;294;1003570;-32
2023/04/14 11:53:59;;;;;;;4.90;2.70;;;;;;;-128.00;-1.00;-1.00;97930;283;1003253;-37
2023/04/14 11:56:26;;;;;;;8.30;3.30;;;;;;;-128.00;-1.00;-1.00;97844;294;1003002;-32
2023/04/14 11:59:00;;;;;;;6.90;3.80;;;;;;;-128.00;-1.00;-1.00;96633;295;3065927;-31
2023/04/14 12:01:27;;;;;;;6.20;4.70;;;;;;;-128.00;-1.00;-1.00;78443;295;7503643;-35
2023/04/14 12:03:56;;;;;;;5.60;4.90;;;;;;;-128.00;-1.00;-1.00;56195;294;4503416;-33
2023/04/14 12:06:22;;;;;;;6.60;4.00;;;;;;;-128.00;-1.00;-1.00;18522;303;7505829;-36
2023/04/14 12:08:51;;;;;;;16.30;7.10;;;;;;;-128.00;-1.00;-1.00;18463;295;7504612;-35
2023/04/14 12:11:17;;;;;;;13.60;9.70;;;;;;;-128.00;-1.00;-1.00;18483;343;7504158;-35
2023/04/14 12:13:45;;;;;;;10.30;9.20;;;;;;;-128.00;-1.00;-1.00;18851;339;7504393;-31
2023/04/14 12:16:11;;;;;;;14.80;5.40;;;;;;;-128.00;-1.00;-1.00;18502;303;7504615;-35
2023/04/14 12:18:36;;;;;;;30.80;3.60;;;;;;;-128.00;-1.00;-1.00;18460;339;7504621;-35
2023/04/14 12:21:03;;;;;;;16.40;4.00;;;;;;;-128.00;-1.00;-1.00;18863;294;7506456;-31
2023/04/14 12:23:33;;;;;;;17.40;8.50;;;;;;;-128.00;-1.00;-1.00;18483;302;7504127;-35
2023/04/14 12:26:01;;;;;;;17.30;12.40;;;;;;;-128.00;-1.00;-1.00;18485;294;7504670;-35
2023/04/14 12:28:27;;;;;;;13.50;8.20;;;;;;;-128.00;-1.00;-1.00;18481;310;7506011;-36
2023/04/14 12:30:59;;;;;;;20.10;4.00;;;;;;;-128.00;-1.00;-1.00;18465;295;7505306;-35
2023/04/14 12:33:28;;;;;;;14.60;12.10;;;;;;;-128.00;-1.00;-1.00;18490;295;7504580;-32
2023/04/14 12:36:02;;;;;;;10.30;4.60;;;;;;;-128.00;-1.00;-1.00;18507;295;7506884;-35